createdAt,value
2022-12-25T00:00:26.802Z,87.71
2022-12-25T00:05:50.090Z,87.61
2022-12-25T00:11:01.390Z,87.54
2022-12-25T00:16:15.572Z,87.40
2022-12-25T00:21:21.508Z,87.19
2022-12-25T00:26:27.096Z,87.10
2022-12-25T00:31:30.250Z,87.15
2022-12-25T00:36:39.541Z,87.26
2022-12-25T00:42:03.852Z,87.49
2022-12-25T00:47:07.237Z,87.56
2022-12-25T00:52:11.029Z,87.42
2022-12-25T00:57:14.397Z,87.07
2022-12-25T01:02:23.719Z,87.02
2022-12-25T01:07:28.036Z,87.04
2022-12-25T01:12:34.329Z,87.36
2022-12-25T01:17:37.468Z,87.25
2022-12-25T01:22:41.203Z,87.33
2022-12-25T01:27:44.346Z,87.63
2022-12-25T01:32:47.623Z,87.68
2022-12-25T01:37:52.350Z,87.76
2022-12-25T01:42:55.558Z,87.82
2022-12-25T01:48:00.749Z,87.79
2022-12-25T01:53:05.055Z,87.69
2022-12-25T01:58:08.574Z,87.51
2022-12-25T02:03:12.091Z,87.32
2022-12-25T02:08:18.728Z,87.10
2022-12-25T02:13:22.695Z,87.28
2022-12-25T02:18:41.373Z,87.29
2022-12-25T02:24:15.206Z,87.32
2022-12-25T02:29:52.707Z,87.47
2022-12-25T02:35:25.743Z,87.60
2022-12-25T02:40:45.227Z,87.59
2022-12-25T02:46:25.395Z,87.53
2022-12-25T02:51:55.008Z,87.36
2022-12-25T02:57:20.654Z,87.21
2022-12-25T03:02:43.444Z,87.18
2022-12-25T03:07:47.753Z,87.10
2022-12-25T03:13:01.751Z,87.28
2022-12-25T03:18:12.289Z,87.27
2022-12-25T03:23:41.709Z,87.31
2022-12-25T03:28:44.919Z,87.43
2022-12-25T03:34:32.680Z,87.34
2022-12-25T03:40:40.296Z,87.11
2022-12-25T03:46:11.096Z,86.97
2022-12-25T03:51:38.217Z,86.84
2022-12-25T03:57:02.992Z,86.74
2022-12-25T04:02:24.941Z,86.90
2022-12-25T04:20:31.349Z,87.10
2022-12-25T04:26:12.955Z,87.07
2022-12-25T04:31:34.930Z,86.83
2022-12-25T04:36:38.121Z,86.69
2022-12-25T04:41:41.323Z,86.61
2022-12-25T04:46:44.607Z,86.69
2022-12-25T04:51:47.871Z,86.64
2022-12-25T04:56:51.075Z,86.73
2022-12-25T05:01:54.237Z,86.86
2022-12-25T05:06:57.507Z,87.05
2022-12-25T05:12:00.572Z,87.38
2022-12-25T05:17:03.902Z,87.41
2022-12-25T05:22:07.000Z,87.38
2022-12-25T05:27:10.113Z,87.33
2022-12-25T05:32:13.281Z,87.20
2022-12-25T05:37:16.314Z,87.44
2022-12-25T05:42:19.425Z,87.68
2022-12-25T05:47:22.624Z,87.62
2022-12-25T05:52:25.672Z,87.86
2022-12-25T05:57:30.316Z,87.83
2022-12-25T06:02:36.507Z,87.93
2022-12-25T06:07:39.762Z,87.96
2022-12-25T06:12:43.073Z,87.73
2022-12-25T06:17:46.195Z,87.55
2022-12-25T06:22:49.335Z,87.49
2022-12-25T06:27:52.600Z,87.50
2022-12-25T06:32:55.811Z,87.57
2022-12-25T06:37:58.841Z,87.64
2022-12-25T06:43:02.020Z,87.75
2022-12-25T06:48:05.945Z,87.82
2022-12-25T06:53:11.571Z,87.88
2022-12-25T06:58:14.607Z,87.69
2022-12-25T07:03:21.604Z,87.68
2022-12-25T07:08:24.710Z,87.29
2022-12-25T07:13:27.716Z,87.34
2022-12-25T07:18:32.312Z,87.29
2022-12-25T07:23:36.168Z,87.43
2022-12-25T07:28:39.843Z,87.60
2022-12-25T07:33:43.624Z,87.78
2022-12-25T07:38:51.048Z,87.86
2022-12-25T07:43:55.063Z,87.75
2022-12-25T07:48:58.940Z,87.85
2022-12-25T07:54:05.293Z,87.60
2022-12-25T07:59:08.601Z,87.32
2022-12-25T08:04:14.318Z,87.28
2022-12-25T08:09:17.553Z,87.16
2022-12-25T08:14:20.765Z,87.21
2022-12-25T08:19:24.086Z,87.32
2022-12-25T08:24:27.999Z,87.40
2022-12-25T08:29:31.323Z,87.44
2022-12-25T08:34:34.546Z,87.40
2022-12-25T08:39:37.645Z,87.38
2022-12-25T08:44:40.842Z,87.15
2022-12-25T08:49:44.049Z,86.87
2022-12-25T08:54:47.874Z,86.59
2022-12-25T08:59:50.974Z,86.65
2022-12-25T09:04:54.183Z,86.62
2022-12-25T09:09:57.600Z,86.33
2022-12-25T09:15:00.711Z,86.36
2022-12-25T09:20:06.027Z,86.49
2022-12-25T09:25:09.940Z,86.32
2022-12-25T09:30:13.397Z,85.97
2022-12-25T09:35:18.647Z,85.74
2022-12-25T09:40:31.243Z,85.43
2022-12-25T09:45:38.859Z,85.46
2022-12-25T09:50:54.417Z,85.29
2022-12-25T09:56:17.424Z,85.19
2022-12-25T10:01:32.491Z,85.26
2022-12-25T10:06:59.826Z,85.52
2022-12-25T10:12:32.432Z,85.86
2022-12-25T10:17:51.027Z,85.73
2022-12-25T10:22:58.708Z,85.57
2022-12-25T10:28:11.234Z,85.50
2022-12-25T10:33:17.283Z,85.73
2022-12-25T10:38:21.244Z,85.90
2022-12-25T10:43:37.311Z,86.11
2022-12-25T10:48:57.712Z,86.38
2022-12-25T10:54:30.304Z,86.50
2022-12-25T10:59:56.305Z,86.39
2022-12-25T11:05:21.232Z,86.20
2022-12-25T11:10:44.586Z,86.11
2022-12-25T11:15:50.387Z,85.93
2022-12-25T11:21:17.140Z,85.81
2022-12-25T11:26:20.767Z,85.75
2022-12-25T11:31:40.803Z,85.90
2022-12-25T11:36:49.399Z,86.13
2022-12-25T11:42:11.641Z,86.14
2022-12-25T11:47:28.883Z,86.00
2022-12-25T11:52:38.850Z,85.93
2022-12-25T11:57:47.556Z,85.72
2022-12-25T12:03:06.902Z,85.56
2022-12-25T12:08:11.697Z,85.71
2022-12-25T12:13:28.508Z,85.50
2022-12-25T12:18:34.617Z,85.48
2022-12-25T12:24:07.029Z,85.58
2022-12-25T12:29:31.014Z,85.63
2022-12-25T12:34:51.387Z,85.71
2022-12-25T12:39:57.350Z,85.70
2022-12-25T12:45:38.585Z,85.74
2022-12-25T12:50:45.564Z,85.83
2022-12-25T12:55:52.091Z,85.89
2022-12-25T13:01:17.778Z,85.89
2022-12-25T13:06:42.425Z,85.81
2022-12-25T13:11:49.086Z,85.58
2022-12-25T13:16:56.076Z,85.37
2022-12-25T13:22:08.296Z,85.32
2022-12-25T13:27:29.090Z,85.23
2022-12-25T13:32:36.497Z,85.27
2022-12-25T13:37:43.092Z,85.19
2022-12-25T13:42:50.749Z,85.48
2022-12-25T13:47:58.542Z,85.76
2022-12-25T13:53:18.839Z,86.13
2022-12-25T13:58:36.216Z,86.11
2022-12-25T14:03:45.457Z,86.06
2022-12-25T14:08:57.776Z,85.92
2022-12-25T14:14:31.902Z,85.79
2022-12-25T14:19:38.656Z,85.78
2022-12-25T14:24:45.449Z,85.82
2022-12-25T14:29:56.805Z,85.89
2022-12-25T14:35:04.964Z,85.94
2022-12-25T14:40:23.106Z,86.07
2022-12-25T14:45:32.704Z,85.90
2022-12-25T14:50:46.024Z,85.82
2022-12-25T14:55:54.690Z,85.69
2022-12-25T15:01:07.209Z,85.64
2022-12-25T15:06:25.041Z,85.58
2022-12-25T15:11:29.820Z,85.68
2022-12-25T15:16:42.794Z,85.89
2022-12-25T15:21:46.315Z,86.10
2022-12-25T15:26:49.730Z,86.10
2022-12-25T15:31:53.032Z,86.12
2022-12-25T15:36:56.856Z,86.10
2022-12-25T15:42:12.785Z,86.24
2022-12-25T15:47:20.295Z,86.43
2022-12-25T15:52:23.509Z,86.56
2022-12-25T15:57:27.002Z,86.64
2022-12-25T16:02:30.378Z,86.58
2022-12-25T16:07:33.938Z,86.61
2022-12-25T16:12:39.214Z,86.68
2022-12-25T16:17:43.028Z,86.86
2022-12-25T16:22:46.215Z,87.07
2022-12-25T16:27:49.438Z,87.11
2022-12-25T16:32:52.753Z,87.18
2022-12-25T16:37:55.846Z,87.13
2022-12-25T16:42:59.209Z,87.07
2022-12-25T16:48:02.359Z,86.99
2022-12-25T16:53:05.903Z,86.93
2022-12-25T16:58:09.083Z,87.04
2022-12-25T17:03:12.503Z,87.10
2022-12-25T17:08:16.223Z,87.29
2022-12-25T17:13:19.633Z,87.46
2022-12-25T17:18:22.977Z,87.50
2022-12-25T17:23:26.045Z,87.57
2022-12-25T17:28:29.386Z,87.66
2022-12-25T17:33:36.270Z,87.85
2022-12-25T17:38:40.278Z,87.98
2022-12-25T17:43:45.944Z,88.07
2022-12-25T17:48:50.518Z,88.18
2022-12-25T17:53:58.378Z,88.18
2022-12-25T17:59:06.886Z,88.11
2022-12-25T18:04:10.611Z,88.18
2022-12-25T18:09:14.380Z,88.26
2022-12-25T18:14:18.719Z,88.32
2022-12-25T18:19:21.890Z,88.45
2022-12-25T18:24:25.153Z,88.49
2022-12-25T18:29:28.351Z,88.43
2022-12-25T18:34:32.650Z,88.44
2022-12-25T18:39:36.681Z,88.50
2022-12-25T18:44:40.736Z,88.57
2022-12-25T18:49:43.955Z,88.72
2022-12-25T18:54:47.633Z,88.71
2022-12-25T18:59:50.887Z,88.67
2022-12-25T19:04:56.206Z,88.50
2022-12-25T19:09:59.363Z,88.67
2022-12-25T19:15:03.385Z,88.73
2022-12-25T19:20:07.727Z,88.79
2022-12-25T19:25:11.004Z,88.89
2022-12-25T19:30:14.438Z,89.00
2022-12-25T19:35:18.102Z,89.01
2022-12-25T19:40:22.794Z,89.16
2022-12-25T19:45:25.961Z,89.35
2022-12-25T19:50:32.693Z,89.50
2022-12-25T19:55:35.931Z,89.51
2022-12-25T20:00:40.558Z,89.49
2022-12-25T20:05:51.168Z,89.50
2022-12-25T20:10:54.344Z,89.63
2022-12-25T20:16:01.962Z,89.75
2022-12-25T20:21:11.022Z,89.71
2022-12-25T20:26:17.471Z,89.69
2022-12-25T20:31:29.797Z,89.73
2022-12-25T20:36:37.273Z,89.79
2022-12-25T20:41:41.533Z,89.85
2022-12-25T20:46:44.737Z,89.72
2022-12-25T20:51:47.959Z,89.65
2022-12-25T20:56:51.266Z,89.63
2022-12-25T21:01:55.901Z,89.68
2022-12-25T21:07:00.557Z,89.65
2022-12-25T21:12:04.058Z,89.50
2022-12-25T21:17:07.431Z,89.52
2022-12-25T21:22:10.680Z,89.61
2022-12-25T21:27:13.815Z,89.63
2022-12-25T21:32:35.631Z,89.63
2022-12-25T21:37:38.951Z,89.53
2022-12-25T21:42:42.156Z,89.43
2022-12-25T21:47:59.841Z,89.50
2022-12-25T21:53:06.848Z,89.67
2022-12-25T21:58:10.015Z,89.64
2022-12-25T22:03:13.266Z,89.61
2022-12-25T22:08:16.520Z,89.57
2022-12-25T22:13:38.540Z,89.68
2022-12-25T22:19:00.686Z,89.65
2022-12-25T22:24:07.421Z,89.62
2022-12-25T22:29:10.651Z,89.44
2022-12-25T22:34:16.581Z,89.44
2022-12-25T22:39:19.672Z,89.47
2022-12-25T22:44:25.358Z,89.47
2022-12-25T22:49:28.482Z,89.56
2022-12-25T22:54:32.316Z,89.58
2022-12-25T22:59:35.418Z,89.58
2022-12-25T23:04:38.723Z,89.81
2022-12-25T23:09:43.631Z,89.89
2022-12-25T23:14:47.192Z,89.81
2022-12-25T23:20:09.138Z,89.80
2022-12-25T23:25:35.071Z,89.88
2022-12-25T23:30:38.328Z,89.81
2022-12-25T23:35:41.612Z,89.90
2022-12-25T23:40:44.726Z,90.00
2022-12-25T23:45:48.022Z,90.11
2022-12-25T23:50:51.328Z,90.09
2022-12-25T23:55:55.960Z,90.11
